createdAt,value
2023-04-03T08:44:36.296Z,102929.06
2023-04-03T08:47:12.508Z,102931.53
2023-04-03T08:49:52.396Z,102930.22
2023-04-03T08:52:33.497Z,102933.59
2023-04-03T08:55:04.726Z,102931.66
2023-04-03T08:57:35.063Z,102920.31
2023-04-03T09:00:11.329Z,102927.72
2023-04-03T09:02:48.455Z,102935.38
2023-04-03T09:05:40.252Z,102924.28
2023-04-03T09:08:25.098Z,102930.41
2023-04-03T09:11:01.480Z,102927.91
2023-04-03T09:13:34.035Z,102923.69
2023-04-03T09:16:03.898Z,102935.38
2023-04-03T09:18:34.443Z,102935.63
2023-04-03T09:21:18.849Z,102934.53
2023-04-03T09:23:51.825Z,102937.97
2023-04-03T09:26:27.319Z,102934.91
2023-04-03T09:28:56.081Z,102929.06
2023-04-03T09:31:25.609Z,102931.88
2023-04-03T09:34:05.282Z,102936.44
2023-04-03T09:36:49.303Z,102926.75
2023-04-03T09:39:18.694Z,102928.00
2023-04-03T09:41:56.579Z,102923.72
2023-04-03T09:44:26.313Z,102920.06
2023-04-03T09:46:53.384Z,102926.41
2023-04-03T09:49:22.357Z,102929.59
2023-04-03T09:51:50.305Z,102917.94
2023-04-03T09:54:37.365Z,102921.53
2023-04-03T09:57:11.390Z,102921.72
2023-04-03T09:59:43.904Z,102929.09
2023-04-03T10:02:28.843Z,102920.53
2023-04-03T10:05:08.808Z,102912.41
2023-04-03T10:07:40.177Z,102913.50
2023-04-03T10:10:18.470Z,102907.16
2023-04-03T10:12:46.232Z,102909.16
2023-04-03T10:15:15.175Z,102896.56
2023-04-03T10:18:14.275Z,102903.25
2023-04-03T10:20:51.198Z,102894.72
2023-04-03T10:23:24.377Z,102903.41
2023-04-03T10:26:08.944Z,102902.59
2023-04-03T10:29:01.214Z,102898.28
2023-04-03T10:31:46.650Z,102903.63
2023-04-03T10:34:28.646Z,102892.56
2023-04-03T10:37:14.475Z,102905.53
2023-04-03T10:39:47.295Z,102894.34
2023-04-03T10:42:29.399Z,102888.59
2023-04-03T10:45:41.260Z,102885.88
2023-04-03T10:48:17.761Z,102882.25
2023-04-03T10:50:50.809Z,102880.44
2023-04-03T10:53:23.650Z,102879.66
2023-04-03T10:56:03.363Z,102876.38
2023-04-03T10:58:30.522Z,102872.13
2023-04-03T11:01:04.132Z,102873.56
2023-04-03T11:03:34.788Z,102863.47
2023-04-03T11:06:03.705Z,102852.94
2023-04-03T11:08:45.989Z,102859.38
2023-04-03T11:11:23.653Z,102854.31
2023-04-03T11:13:56.940Z,102853.06
2023-04-03T11:16:30.501Z,102854.50
2023-04-03T11:19:01.278Z,102855.41
2023-04-03T11:22:16.971Z,102849.13
2023-04-03T11:24:44.760Z,102845.50
2023-04-03T11:27:17.956Z,102827.84
2023-04-03T11:29:46.673Z,102837.75
2023-04-03T11:32:34.758Z,102841.78
2023-04-03T11:35:03.335Z,102835.38
2023-04-03T11:37:36.976Z,102833.09
2023-04-03T11:40:14.041Z,102836.25
2023-04-03T11:42:42.151Z,102832.50
2023-04-03T11:45:19.135Z,102838.47
2023-04-03T11:47:54.086Z,102850.91
2023-04-03T11:50:41.644Z,102843.44
2023-04-03T11:53:09.099Z,102851.03
2023-04-03T11:55:37.184Z,102848.44
2023-04-03T11:58:13.772Z,102847.00
2023-04-03T12:00:48.197Z,102841.69
2023-04-03T12:03:24.428Z,102836.97
2023-04-03T12:06:01.424Z,102849.03
2023-04-03T12:08:34.557Z,102834.63
2023-04-03T12:11:10.793Z,102848.69
2023-04-03T12:13:39.452Z,102848.75
2023-04-03T12:16:28.731Z,102843.09
2023-04-03T12:19:15.498Z,102850.53
2023-04-03T12:21:46.019Z,102841.72
2023-04-03T12:24:19.239Z,102834.41
2023-04-03T12:26:58.428Z,102843.44
2023-04-03T12:29:34.581Z,102839.09
2023-04-03T12:32:13.711Z,102836.31
2023-04-03T12:34:57.619Z,102831.09
2023-04-03T12:37:49.400Z,102834.69
2023-04-03T12:40:34.126Z,102827.50
2023-04-03T12:43:11.385Z,102832.31
2023-04-03T12:45:44.812Z,102819.69
2023-04-03T12:48:19.630Z,102823.78
2023-04-03T12:50:50.559Z,102823.06
2023-04-03T12:53:17.502Z,102822.84
2023-04-03T12:55:47.644Z,102823.50
2023-04-03T12:58:16.546Z,102826.88
2023-04-03T13:00:43.363Z,102822.09
2023-04-03T13:03:24.158Z,102816.97
2023-04-03T13:05:51.485Z,102820.56
2023-04-03T13:08:20.440Z,102817.59
2023-04-03T13:10:52.739Z,102824.13
2023-04-03T13:13:19.546Z,102816.84
2023-04-03T13:15:54.012Z,102816.69
2023-04-03T13:18:25.070Z,102816.72
2023-04-03T13:20:52.233Z,102819.31
2023-04-03T13:23:21.771Z,102820.28
2023-04-03T13:25:49.597Z,102816.94
2023-04-03T13:28:19.838Z,102813.25
2023-04-03T13:31:00.973Z,102813.47
2023-04-03T13:33:32.774Z,102818.00
2023-04-03T13:36:19.762Z,102811.78
2023-04-03T13:38:46.651Z,102812.06
2023-04-03T13:41:27.705Z,102810.28
2023-04-03T13:44:03.284Z,102801.97
2023-04-03T13:46:37.456Z,102799.22
2023-04-03T13:49:28.382Z,102805.47
2023-04-03T13:52:06.404Z,102807.16
2023-04-03T13:54:37.813Z,102805.16
2023-04-03T13:57:17.123Z,102793.13
2023-04-03T13:59:45.050Z,102797.03
2023-04-03T14:02:17.687Z,102793.31
2023-04-03T14:04:50.532Z,102795.00
2023-04-03T14:07:19.326Z,102795.50
2023-04-03T14:09:46.407Z,102797.09
2023-04-03T14:12:30.132Z,102789.47
2023-04-03T14:14:58.270Z,102788.47
2023-04-03T14:17:27.779Z,102786.63
2023-04-03T14:19:56.124Z,102794.59
2023-04-03T14:22:32.745Z,102785.03
2023-04-03T14:25:00.069Z,102797.47
2023-04-03T14:27:36.812Z,102795.63
2023-04-03T14:30:05.426Z,102797.91
2023-04-03T14:32:32.307Z,102798.44
2023-04-03T14:34:59.581Z,102797.16
2023-04-03T14:37:29.082Z,102798.44
2023-04-03T14:39:57.337Z,102799.78
2023-04-03T14:42:26.581Z,102790.56
2023-04-03T14:44:53.512Z,102789.41
2023-04-03T14:47:31.308Z,102795.25
2023-04-03T14:50:01.312Z,102790.53
2023-04-03T14:52:31.622Z,102786.56
2023-04-03T14:54:58.475Z,102785.19
2023-04-03T14:57:27.313Z,102782.25
2023-04-03T14:59:54.306Z,102772.50
2023-04-03T15:02:37.535Z,102762.28
2023-04-03T15:05:09.952Z,102764.22
2023-04-03T15:07:39.015Z,102763.06
2023-04-03T15:10:18.561Z,102765.44
2023-04-03T15:12:47.870Z,102764.16
2023-04-03T15:15:16.115Z,102767.97
2023-04-03T15:17:44.550Z,102768.13
2023-04-03T15:20:20.236Z,102771.00
2023-04-03T15:22:47.469Z,102767.16
2023-04-03T15:25:14.358Z,102766.69
2023-04-03T15:27:42.601Z,102767.66
2023-04-03T15:30:14.758Z,102764.66
2023-04-03T15:32:41.581Z,102766.38
2023-04-03T15:35:08.697Z,102764.63
2023-04-03T15:37:35.795Z,102763.41
2023-04-03T15:40:02.947Z,102760.41
2023-04-03T15:42:29.803Z,102762.81
2023-04-03T15:44:56.626Z,102758.97
2023-04-03T15:47:23.523Z,102766.16
